Youngstown Warren Regional Airport
KYNG : now visible

Airfield :











YOU CAN JOIN US ON...

 
LOGIN :

Register | Disclaimer

   EN    FR    IT 

 









Legend :    VFR   Marginal VFR   IFR   Intensive IFR   Very Intensive IFR
Visi :
Ceiling :
>= 8 km
>= 3000ft
5 to 8 km
1000 to 3000 ft
1500m to 5 km
500 to 1000 ft
800 to 1500m
200 to 500 ft
< 800m
< 200 ft
Symbols :   Thunderstorms  Fog  Heavy snow  Heavy precipitations  Wind > 20 kt






- Airport Elevation : 1192 ft
- IATA code : YNG


KYNG - Youngstown Warren Regional

CURRENT METAR :
  • 040251Z 00000KT 10SM CLR 04/M01 A3002 RMK AO2 SLP173 T00441011 50003 $

EXPIRED METARs :
  • 040151Z 32003KT 10SM CLR 06/M01 A3003 RMK AO2 SLP175 T00561011 $
  • 040051Z 30004KT 10SM CLR 07/M02 A3002 RMK AO2 SLP172 T00671017 $

TAF KYNG
Valid from the 04 at 00:00 until the 05 at 00:00 UTC


032333Z 0400/0424 33006KT P6SM SKC
FM040200 VRB03KT P6SM SKC



MET'MAP, your aeronautical weather chart ! - Copyright ORBIFLY December 2007 - Disclaimer

ORBIFLY MET'MAP TEAM :

Programming & Development : Alexandra Zaïnal
Concept & original design : Baudouin d'Aumeries
Assistance for programming : Marc-Olivier Méhu
Technical & hardware support : Manuel Goepfert

Contact : metmap@orbifly.com




SOURCES & CREDITS :

   NOAA       Earth
Advisory